Weather at Riverside Heliport

Public forecast

Using degrees Fahrenheit for public forecast. Weather courtesy of forecast.io.

Closest aviation weather report (METAR) to Riverside Heliport

Closest report is Glacier Park International Airport, 5.9 nm (11.0 km) NNE. Retrieved 2021/11/26 22:55 UTC (5 minutes ago):

KGPI 262255Z 17009KT 10SM BKN037 07/03 A3003 RMK AO2 SLP184 T00720028

Closest aviation forecast (TAF) to Riverside Heliport

Closest forecast is Glacier Park International Airport, 5.9 nm (11.0 km) NNE. Retrieved 2021/11/26 18:27 UTC (5 hours ago):

TAF KGPI 261724Z 2618/2718 16011KT P6SM -RA FEW025 SCT030 OVC040 FM262300 19006KT P6SM OVC045 FM270500 VRB02KT 4SM BR OVC020